createdAt,value
2018-09-12T00:00:40.538Z,63.20
2018-09-12T00:03:09.734Z,63.20
2018-09-12T00:05:39.189Z,63.50
2018-09-12T00:08:08.416Z,63.50
2018-09-12T00:10:37.619Z,63.10
2018-09-12T00:13:07.216Z,63.40
2018-09-12T00:15:44.578Z,62.80
2018-09-12T00:18:13.976Z,63.60
2018-09-12T00:20:43.187Z,64.00
2018-09-12T00:23:12.459Z,65.40
2018-09-12T00:25:41.682Z,66.80
2018-09-12T00:28:10.915Z,69.00
2018-09-12T00:30:40.105Z,68.50
2018-09-12T00:33:09.371Z,67.80
2018-09-12T00:35:44.297Z,67.00
2018-09-12T00:38:14.486Z,67.30
2018-09-12T00:40:44.460Z,66.80
2018-09-12T00:43:13.619Z,66.10
2018-09-12T00:45:44.885Z,65.10
2018-09-12T00:48:14.084Z,66.60
2018-09-12T00:50:43.273Z,68.00
2018-09-12T00:53:12.527Z,71.00
2018-09-12T00:55:42.900Z,71.40
2018-09-12T00:58:12.128Z,71.80
2018-09-12T01:00:41.360Z,72.40
2018-09-12T01:03:11.770Z,74.20
2018-09-12T01:05:42.197Z,73.90
2018-09-12T01:08:12.978Z,71.50
2018-09-12T01:10:42.184Z,69.80
2018-09-12T01:13:11.450Z,68.40
2018-09-12T01:15:40.768Z,68.20
2018-09-12T01:18:14.167Z,67.20
2018-09-12T01:20:44.191Z,68.80
2018-09-12T01:23:13.394Z,70.10
2018-09-12T01:25:42.686Z,71.10
2018-09-12T01:28:12.019Z,74.00
2018-09-12T01:30:41.249Z,75.20
2018-09-12T01:33:10.430Z,75.80
2018-09-12T01:35:39.827Z,75.70
2018-09-12T01:38:09.021Z,76.30
2018-09-12T01:40:38.314Z,76.80
2018-09-12T01:43:07.512Z,76.20
2018-09-12T01:45:36.914Z,75.60
2018-09-12T01:48:06.428Z,74.60
2018-09-12T01:50:35.652Z,72.10
2018-09-12T01:53:04.921Z,72.80
2018-09-12T01:55:34.533Z,72.40
2018-09-12T01:58:03.724Z,72.10
2018-09-12T02:00:38.196Z,71.20
2018-09-12T02:03:07.704Z,72.00
2018-09-12T02:05:37.689Z,71.00
2018-09-12T02:08:07.207Z,71.60
2018-09-12T02:10:36.421Z,71.20
2018-09-12T02:13:05.692Z,71.20
2018-09-12T02:15:36.073Z,69.90
2018-09-12T02:18:05.455Z,71.10
2018-09-12T02:20:34.663Z,71.10
2018-09-12T02:23:03.862Z,71.40
2018-09-12T02:25:33.111Z,71.60
2018-09-12T02:28:02.320Z,70.50
2018-09-12T02:30:31.527Z,71.50
2018-09-12T02:33:00.748Z,70.10
2018-09-12T02:35:30.140Z,70.60
2018-09-12T02:37:59.378Z,68.90
2018-09-12T02:40:28.584Z,69.80
2018-09-12T02:42:57.798Z,71.10
2018-09-12T02:45:31.385Z,71.50
2018-09-12T02:48:14.426Z,73.60
2018-09-12T02:50:54.384Z,74.80
2018-09-12T02:53:23.615Z,77.10
2018-09-12T02:55:52.828Z,77.00
2018-09-12T02:58:22.160Z,77.10
2018-09-12T03:00:51.353Z,75.70
2018-09-12T03:03:20.634Z,74.80
2018-09-12T03:05:49.869Z,73.80
2018-09-12T03:08:19.115Z,72.10
2018-09-12T03:10:48.329Z,69.90
2018-09-12T03:13:17.555Z,72.30
2018-09-12T03:15:47.720Z,72.60
2018-09-12T03:18:16.903Z,72.80
2018-09-12T03:20:46.317Z,71.50
2018-09-12T03:23:15.354Z,71.90
2018-09-12T03:25:44.586Z,70.60
2018-09-12T03:28:13.810Z,73.00
2018-09-12T03:30:43.039Z,72.50
2018-09-12T03:33:12.252Z,73.50
2018-09-12T03:35:41.526Z,72.80
2018-09-12T03:38:11.022Z,73.50
2018-09-12T03:40:40.278Z,72.30
2018-09-12T03:43:09.942Z,73.40
2018-09-12T03:46:02.021Z,73.40
2018-09-12T03:48:33.073Z,73.40
2018-09-12T03:51:02.545Z,71.70
2018-09-12T03:53:33.071Z,73.90
2018-09-12T03:56:03.161Z,74.70
2018-09-12T03:58:37.662Z,73.70
2018-09-12T04:01:31.131Z,72.80
2018-09-12T04:04:02.593Z,74.90
2018-09-12T04:06:31.798Z,73.90
2018-09-12T04:09:00.973Z,73.90
2018-09-12T04:11:30.177Z,74.70
2018-09-12T04:14:15.252Z,73.60
2018-09-12T04:16:49.342Z,74.50
2018-09-12T04:19:18.445Z,74.30
2018-09-12T04:22:01.328Z,72.70
2018-09-12T04:24:38.647Z,72.90
2018-09-12T04:27:09.053Z,74.10
2018-09-12T04:29:39.544Z,74.60
2018-09-12T04:32:10.006Z,75.20
2018-09-12T04:37:46.162Z,74.90
2018-09-12T04:40:15.419Z,75.70
2018-09-12T04:43:04.474Z,74.00
2018-09-12T04:45:41.835Z,72.50
2018-09-12T04:48:12.220Z,73.90
2018-09-12T04:51:05.764Z,75.60
2018-09-12T04:53:36.326Z,75.60
2018-09-12T04:56:06.489Z,76.40
2018-09-12T04:58:36.297Z,76.60
2018-09-12T05:05:25.178Z,75.80
2018-09-12T05:07:54.602Z,75.20
2018-09-12T05:10:24.320Z,73.10
2018-09-12T05:12:53.533Z,73.40
2018-09-12T05:15:24.952Z,71.40
2018-09-12T05:17:54.122Z,73.00
2018-09-12T05:20:23.567Z,72.20
2018-09-12T05:22:53.924Z,72.40
2018-09-12T05:25:23.321Z,70.30
2018-09-12T05:27:52.672Z,70.30
2018-09-12T05:30:22.098Z,71.40
2018-09-12T05:32:51.449Z,70.90
2018-09-12T05:35:20.829Z,70.10
2018-09-12T05:37:50.156Z,70.20
2018-09-12T05:40:19.358Z,70.90
2018-09-12T05:42:49.105Z,70.40
2018-09-12T05:45:19.501Z,70.70
2018-09-12T05:47:48.711Z,70.50
2018-09-12T05:50:17.948Z,69.20
2018-09-12T05:52:47.124Z,67.60
2018-09-12T05:55:17.219Z,68.50
2018-09-12T05:57:46.540Z,67.70
2018-09-12T06:00:16.878Z,68.00
2018-09-12T06:02:46.103Z,68.10
2018-09-12T06:05:17.375Z,66.30
2018-09-12T06:07:46.639Z,66.40
2018-09-12T06:10:17.415Z,66.50
2018-09-12T06:12:46.777Z,66.00
2018-09-12T06:15:16.053Z,63.90
2018-09-12T06:17:45.353Z,64.80
2018-09-12T06:20:16.242Z,65.60
2018-09-12T06:22:45.556Z,66.80
2018-09-12T06:25:16.465Z,67.90
2018-09-12T06:27:45.736Z,67.80
2018-09-12T06:30:17.027Z,66.60
2018-09-12T06:32:47.048Z,66.70
2018-09-12T06:35:20.936Z,64.10
2018-09-12T06:37:50.188Z,64.20
2018-09-12T06:40:19.446Z,63.40
2018-09-12T06:42:48.704Z,60.40
2018-09-12T06:45:18.229Z,60.70
2018-09-12T06:47:47.656Z,60.40
2018-09-12T06:50:16.925Z,60.10
2018-09-12T06:52:46.324Z,60.10
2018-09-12T06:55:15.787Z,60.90
2018-09-12T06:57:45.056Z,58.80
2018-09-12T07:00:16.209Z,56.40
2018-09-12T07:02:45.561Z,56.60
2018-09-12T07:05:16.980Z,53.80
2018-09-12T07:07:46.388Z,53.30
2018-09-12T07:10:17.006Z,52.20
2018-09-12T07:12:46.244Z,46.00
2018-09-12T07:15:17.745Z,41.90
2018-09-12T07:17:47.054Z,40.10
2018-09-12T07:20:16.335Z,39.40
2018-09-12T07:22:45.656Z,38.80
2018-09-12T07:25:16.064Z,37.40
2018-09-12T07:27:46.039Z,37.10
2018-09-12T07:30:15.450Z,35.40
2018-09-12T07:32:44.632Z,33.70
2018-09-12T07:35:15.992Z,31.90
2018-09-12T07:37:45.205Z,30.50
2018-09-12T07:40:14.424Z,29.80
2018-09-12T07:42:44.167Z,29.20
2018-09-12T07:45:14.506Z,29.10
2018-09-12T07:47:44.848Z,28.80
2018-09-12T07:50:16.789Z,29.40
2018-09-12T07:52:45.981Z,29.40
2018-09-12T07:55:16.007Z,28.50
2018-09-12T07:57:45.427Z,26.90
2018-09-12T08:00:15.210Z,27.60
2018-09-12T08:02:44.555Z,27.30
2018-09-12T08:05:14.995Z,27.10
2018-09-12T08:07:44.127Z,26.80
2018-09-12T08:10:13.377Z,26.00
2018-09-12T08:12:43.524Z,25.50
2018-09-12T08:15:14.810Z,25.70
2018-09-12T08:17:44.071Z,24.60
2018-09-12T08:20:14.183Z,25.00
2018-09-12T08:22:43.479Z,23.40
2018-09-12T08:25:12.913Z,24.50
2018-09-12T08:27:42.177Z,22.80
2018-09-12T08:30:11.553Z,23.10
2018-09-12T08:32:40.847Z,23.60
2018-09-12T08:35:12.228Z,22.90
2018-09-12T08:37:41.515Z,23.30
2018-09-12T08:40:10.974Z,22.80
2018-09-12T08:42:40.252Z,22.60
2018-09-12T08:45:09.581Z,22.70
2018-09-12T08:47:38.882Z,23.70
2018-09-12T08:50:09.796Z,22.80
2018-09-12T08:52:39.306Z,22.10
2018-09-12T08:55:12.011Z,21.90
2018-09-12T08:57:41.278Z,22.00
2018-09-12T09:00:10.631Z,22.10
2018-09-12T09:02:39.913Z,20.30
2018-09-12T09:05:09.386Z,20.40
2018-09-12T09:07:38.771Z,20.50
2018-09-12T09:10:08.259Z,20.50
2018-09-12T09:12:37.717Z,20.20
2018-09-12T09:15:08.300Z,20.40
2018-09-12T09:17:37.580Z,19.20
2018-09-12T09:20:06.829Z,19.60
2018-09-12T09:22:36.118Z,18.40
2018-09-12T09:25:05.859Z,16.30
2018-09-12T09:27:35.427Z,17.00
2018-09-12T09:30:05.053Z,16.80
2018-09-12T09:32:34.677Z,17.20
2018-09-12T09:35:04.218Z,17.10
2018-09-12T09:37:33.350Z,17.00
2018-09-12T09:40:02.674Z,15.90
2018-09-12T09:42:32.034Z,16.10
2018-09-12T09:45:01.352Z,16.30
2018-09-12T09:47:30.584Z,16.40
2018-09-12T09:50:11.641Z,16.00
2018-09-12T09:52:40.889Z,15.40
2018-09-12T09:55:18.430Z,15.40
2018-09-12T09:57:47.641Z,15.30
2018-09-12T10:00:22.338Z,16.00
2018-09-12T10:02:56.719Z,15.10
2018-09-12T10:05:32.008Z,15.40
2018-09-12T10:08:11.714Z,15.80
2018-09-12T10:10:47.038Z,15.20
2018-09-12T10:13:22.311Z,14.40
2018-09-12T10:15:51.587Z,14.40
2018-09-12T10:18:20.884Z,14.10
2018-09-12T10:20:50.443Z,14.50
2018-09-12T10:23:22.958Z,14.60
2018-09-12T10:25:52.626Z,14.30
2018-09-12T10:28:22.049Z,12.90
2018-09-12T10:30:51.406Z,13.60
2018-09-12T10:33:20.815Z,12.40
2018-09-12T10:35:50.542Z,13.00
2018-09-12T10:38:21.088Z,13.10
2018-09-12T10:40:50.419Z,13.00
2018-09-12T10:43:22.259Z,12.80
2018-09-12T10:45:51.758Z,12.00
2018-09-12T10:48:24.118Z,12.30
2018-09-12T10:50:54.072Z,12.10
2018-09-12T10:53:24.747Z,11.30
2018-09-12T10:55:54.113Z,11.80
2018-09-12T10:58:33.494Z,11.50
2018-09-12T11:01:03.570Z,11.20
2018-09-12T11:03:35.054Z,12.60
2018-09-12T11:06:36.336Z,12.70
2018-09-12T11:09:09.101Z,12.00
2018-09-12T11:11:38.543Z,10.70
2018-09-12T11:14:14.134Z,11.60
2018-09-12T11:16:48.510Z,10.90
2018-09-12T11:19:19.126Z,11.40
2018-09-12T11:21:48.458Z,11.90
2018-09-12T11:24:19.187Z,10.70
2018-09-12T11:26:48.513Z,10.60
2018-09-12T11:29:17.890Z,10.50
2018-09-12T11:31:47.565Z,10.20
2018-09-12T11:34:19.300Z,9.80
2018-09-12T11:36:48.650Z,9.30
2018-09-12T11:39:18.290Z,10.30
2018-09-12T11:41:47.575Z,9.30
2018-09-12T11:44:16.949Z,9.30
2018-09-12T11:46:46.700Z,9.40
2018-09-12T11:49:17.190Z,8.90
2018-09-12T11:51:47.404Z,9.30
2018-09-12T11:54:16.915Z,8.20
2018-09-12T11:56:47.970Z,7.90
2018-09-12T11:59:17.182Z,8.50
2018-09-12T12:01:47.077Z,8.40
2018-09-12T12:04:29.972Z,9.20
2018-09-12T12:07:01.308Z,8.90
2018-09-12T12:09:31.167Z,7.90
2018-09-12T12:12:00.487Z,8.80
2018-09-12T12:14:31.008Z,8.40
2018-09-12T12:17:01.194Z,8.20
2018-09-12T12:19:32.304Z,8.50
2018-09-12T12:22:01.672Z,7.30
2018-09-12T12:24:31.950Z,7.10
2018-09-12T12:27:01.261Z,7.40
2018-09-12T12:29:30.659Z,7.00
2018-09-12T12:31:59.879Z,7.40
2018-09-12T12:34:30.276Z,7.30
2018-09-12T12:36:59.582Z,7.30
2018-09-12T12:39:40.322Z,7.10
2018-09-12T12:42:09.708Z,7.30
2018-09-12T12:44:40.210Z,7.50
2018-09-12T12:47:09.495Z,5.90
2018-09-12T12:49:39.337Z,6.00
2018-09-12T12:52:08.630Z,4.90
2018-09-12T12:54:38.994Z,4.30
2018-09-12T12:57:08.209Z,4.70
2018-09-12T12:59:37.403Z,5.80
2018-09-12T13:02:06.948Z,5.20
2018-09-12T13:04:41.766Z,4.70
2018-09-12T13:07:12.144Z,4.70
2018-09-12T13:09:41.480Z,4.40
2018-09-12T13:12:11.184Z,3.90
2018-09-12T13:14:42.876Z,3.90
2018-09-12T13:17:13.174Z,3.20
2018-09-12T13:19:42.651Z,3.10
2018-09-12T13:22:11.875Z,2.50
2018-09-12T13:24:41.281Z,3.10
2018-09-12T13:27:10.628Z,3.10
2018-09-12T13:29:41.856Z,2.70
2018-09-12T13:32:13.558Z,3.60
2018-09-12T13:34:43.024Z,2.20
2018-09-12T13:37:14.443Z,1.80
2018-09-12T13:39:43.678Z,1.40
2018-09-12T13:42:13.285Z,1.00
2018-09-12T13:44:43.713Z,1.00
2018-09-12T13:47:13.675Z,1.00
2018-09-12T13:49:43.902Z,1.00
2018-09-12T13:52:13.107Z,1.00
2018-09-12T13:54:42.371Z,1.00
2018-09-12T13:57:11.933Z,1.00
2018-09-12T13:59:41.188Z,1.00
2018-09-12T14:02:10.434Z,1.00
2018-09-12T14:04:40.315Z,1.00
2018-09-12T14:07:09.884Z,1.00
2018-09-12T14:09:39.940Z,1.00
2018-09-12T14:12:09.838Z,1.00
2018-09-12T14:14:48.260Z,1.00
2018-09-12T14:17:20.754Z,1.00
2018-09-12T14:19:50.378Z,1.00
2018-09-12T14:22:20.062Z,1.00
2018-09-12T14:24:51.635Z,1.00
2018-09-12T14:27:21.031Z,1.00
2018-09-12T14:29:51.820Z,1.00
2018-09-12T14:32:24.552Z,1.00
2018-09-12T14:34:55.113Z,1.00
2018-09-12T14:37:26.128Z,1.00
2018-09-12T14:39:59.907Z,1.00
2018-09-12T14:42:49.726Z,1.00
2018-09-12T14:45:19.565Z,1.00
2018-09-12T14:47:50.655Z,1.00
2018-09-12T14:50:20.468Z,1.00
2018-09-12T14:52:50.239Z,1.00
2018-09-12T14:55:22.920Z,1.00
2018-09-12T14:57:53.583Z,1.00
2018-09-12T15:00:27.955Z,1.00
2018-09-12T15:02:59.917Z,1.00
2018-09-12T15:05:31.363Z,1.00
2018-09-12T15:08:01.276Z,1.00
2018-09-12T15:10:30.735Z,1.00
2018-09-12T15:13:00.814Z,1.00
2018-09-12T15:15:31.477Z,1.00
2018-09-12T15:18:02.480Z,1.00
2018-09-12T15:20:32.046Z,1.00
2018-09-12T15:23:05.884Z,1.00
2018-09-12T15:25:36.631Z,1.00
2018-09-12T15:28:08.323Z,1.00
2018-09-12T15:30:39.849Z,1.00
2018-09-12T15:33:14.182Z,1.00
2018-09-12T15:35:48.798Z,1.00
2018-09-12T15:38:39.240Z,1.00
2018-09-12T15:41:14.421Z,1.00
2018-09-12T15:43:55.014Z,1.00
2018-09-12T15:46:31.283Z,1.00
2018-09-12T15:49:06.252Z,1.00
2018-09-12T15:51:36.702Z,1.00
2018-09-12T15:54:08.247Z,1.00
2018-09-12T15:56:38.904Z,1.00
2018-09-12T15:59:10.926Z,1.00
2018-09-12T16:01:40.941Z,1.00
2018-09-12T16:04:11.696Z,1.00
2018-09-12T16:06:47.876Z,1.00
2018-09-12T16:09:27.797Z,1.00
2018-09-12T16:12:00.564Z,1.00
2018-09-12T16:14:43.896Z,1.00
2018-09-12T16:19:57.430Z,1.70
2018-09-12T16:22:27.730Z,1.90
2018-09-12T16:24:58.514Z,2.60
2018-09-12T16:27:38.689Z,4.10
2018-09-12T16:30:23.391Z,4.30
2018-09-12T16:32:55.157Z,5.70
2018-09-12T16:35:27.558Z,7.50
2018-09-12T16:38:04.298Z,8.50
2018-09-12T16:40:49.882Z,8.40
2018-09-12T16:43:21.830Z,9.10
2018-09-12T16:45:52.596Z,9.80
2018-09-12T16:48:22.926Z,10.10
2018-09-12T16:50:59.417Z,10.30
2018-09-12T16:53:38.681Z,11.90
2018-09-12T16:56:08.474Z,13.60
2018-09-12T16:58:38.904Z,14.00
2018-09-12T17:01:14.585Z,16.20
2018-09-12T17:03:50.867Z,17.40
2018-09-12T17:06:20.552Z,18.20
2018-09-12T17:08:52.213Z,18.90
2018-09-12T17:11:23.378Z,20.00
2018-09-12T17:14:01.027Z,20.20
2018-09-12T17:16:33.328Z,21.20
2018-09-12T17:19:08.501Z,22.10
2018-09-12T17:25:24.302Z,23.30
2018-09-12T17:28:00.102Z,25.00
2018-09-12T17:30:41.515Z,25.60
2018-09-12T17:33:20.455Z,24.80
2018-09-12T17:35:53.118Z,24.20
2018-09-12T17:38:22.720Z,24.50
2018-09-12T17:44:12.734Z,23.30
2018-09-12T17:46:43.743Z,22.60
2018-09-12T17:49:16.208Z,24.40
2018-09-12T19:04:56.781Z,38.20
2018-09-12T19:07:26.162Z,37.70
2018-09-12T19:09:55.441Z,37.90
2018-09-12T19:12:24.854Z,37.10
2018-09-12T19:14:54.365Z,36.10
2018-09-12T19:17:25.473Z,38.30
2018-09-12T19:19:54.718Z,37.90
2018-09-12T19:22:24.116Z,37.40
2018-09-12T19:24:53.619Z,36.60
2018-09-12T19:27:23.353Z,37.10
2018-09-12T19:29:52.827Z,37.50
2018-09-12T19:32:24.309Z,37.90
2018-09-12T19:34:54.746Z,36.40
2018-09-12T19:37:24.100Z,35.70
2018-09-12T19:39:53.644Z,35.60
2018-09-12T19:42:26.063Z,36.50
2018-09-12T19:44:57.793Z,36.10
2018-09-12T19:47:29.828Z,37.40
2018-09-12T19:49:59.276Z,37.60
2018-09-12T19:52:32.733Z,36.50
2018-09-12T19:55:11.560Z,37.70
2018-09-12T19:57:41.048Z,35.50
2018-09-12T20:00:20.124Z,32.20
2018-09-12T20:02:50.735Z,28.20
2018-09-12T20:05:21.332Z,27.80
2018-09-12T20:07:52.448Z,29.50
2018-09-12T20:20:41.615Z,48.40
2018-09-12T20:23:13.447Z,58.20
2018-09-12T20:25:57.677Z,64.60
2018-09-12T20:28:37.654Z,68.10
2018-09-12T20:31:21.804Z,71.00
2018-09-12T20:45:00.751Z,84.10
2018-09-12T20:47:32.982Z,83.10
2018-09-12T20:50:06.114Z,88.10
2018-09-12T20:52:35.582Z,86.80
2018-09-12T20:55:15.743Z,84.20
2018-09-12T20:57:52.878Z,88.00
2018-09-12T21:00:30.586Z,90.10
2018-09-12T21:03:10.817Z,91.30
2018-09-12T21:05:45.906Z,94.50
2018-09-12T21:16:37.156Z,93.80
2018-09-12T21:21:51.301Z,94.50
2018-09-12T21:24:23.615Z,98.20
2018-09-12T21:26:54.031Z,96.80
2018-09-12T21:29:23.461Z,96.30
2018-09-12T21:31:52.893Z,97.70
2018-09-12T21:34:24.129Z,95.50
2018-09-12T21:36:53.885Z,97.30
2018-09-12T21:39:33.173Z,99.30
2018-09-12T21:42:04.579Z,99.70
2018-09-12T21:44:37.111Z,99.90
2018-09-12T21:47:10.410Z,97.20
2018-09-12T21:49:48.318Z,95.50
2018-09-12T21:55:11.525Z,97.50
2018-09-12T22:03:06.426Z,98.70
2018-09-12T22:13:58.679Z,99.50
2018-09-12T22:19:21.372Z,99.40
2018-09-12T22:21:56.537Z,98.90
2018-09-12T22:24:30.036Z,99.90
2018-09-12T22:27:07.660Z,99.30
2018-09-12T22:29:47.184Z,99.90
2018-09-12T22:32:23.592Z,99.90
2018-09-12T22:34:59.623Z,99.90
2018-09-12T22:37:33.144Z,99.90
2018-09-12T22:42:57.786Z,99.90
2018-09-12T22:45:30.709Z,99.90
2018-09-12T22:50:49.099Z,99.90
2018-09-12T22:53:24.704Z,99.90
2018-09-12T22:55:56.131Z,99.80
2018-09-12T22:58:34.089Z,99.60
2018-09-12T23:01:04.696Z,99.90
2018-09-12T23:03:41.401Z,99.90
2018-09-12T23:08:56.650Z,99.90
2018-09-12T23:11:27.296Z,99.90
2018-09-12T23:14:03.499Z,99.90
2018-09-12T23:19:17.138Z,99.90
2018-09-12T23:21:51.354Z,99.90
2018-09-12T23:24:27.373Z,99.90
2018-09-12T23:26:57.285Z,99.90
2018-09-12T23:29:26.545Z,99.90
2018-09-12T23:31:55.965Z,99.90
2018-09-12T23:34:25.413Z,99.80
2018-09-12T23:36:54.847Z,99.10
2018-09-12T23:39:24.673Z,99.90
2018-09-12T23:41:53.934Z,99.90
2018-09-12T23:44:23.643Z,99.90
2018-09-12T23:46:53.077Z,99.90
2018-09-12T23:49:22.785Z,99.90
2018-09-12T23:51:52.218Z,99.90
2018-09-12T23:54:22.016Z,99.90
2018-09-12T23:56:52.099Z,99.90
2018-09-12T23:59:22.874Z,99.90
